BENVENUTI AL 154° GRUPPO VIRTUALE
  • Coppia_Tornado_camo
  • linea_volo_F104G
  • cockpit_view
  • Tornado_grey
  • F84F_decollo
  • F84F_Garda
  • F-14B_coppia
  • F-14B_primopiano
  • F-14B_cockpit
  • Benvenuti al 154° Gruppo Virtuale


    Simulazione, Storia e Passione


  • Benvenuti al 154° Gruppo Virtuale


    Simulazione, Storia e Passione


  • Benvenuti al 154° Gruppo Virtuale


    Simulazione, Storia e Passione


  • Benvenuti al 154° Gruppo Virtuale


    Simulazione, Storia e Passione


  • Benvenuti al 154° Gruppo Virtuale


    Simulazione, Storia e Passione


  • Benvenuti al 154° Gruppo Virtuale


    Simulazione, Storia e Passione


  • Benvenuti al 154° Gruppo Virtuale


    Simulazione, Storia e Passione


  • Benvenuti al 154° Gruppo Virtuale


    Simulazione, Storia e Passione


  • Benvenuti al 154° Gruppo Virtuale


    Simulazione, Storia e Passione


METAR & TAF

[Source: ADDS]
METAR
LIPL 150755Z 28005KT CAVOK 26/19 Q1007 RMK FEW FEW200 VIS MIN 9999 WIND THR31 25004KT WIND THR13 26005KT BLU =
LIPL 150800Z 1509/1518 27004KT CAVOK PROB30 1515/1518 34010KT 8000 TSRA SCT020CB SCT070
TAF
LIPL 150800Z 1509/1518 27004KT CAVOK PROB30 1515/1518 34010KT 8000 TSRA SCT020CB SCT070 =

Notice: Undefined index: sun in /web/htdocs/www.154gruppovirtuale.it/home/modules/mod_wx/tmpl/default.php on line 13

Simulation Platform